Capitol Logistics 1803

Operating for CJT



CYOW
Ottawa Macdonald-Cartier International Airport
Ottawa, CA
CYHM
John C. Munro Hamilton International Airport
Hamilton, CA

Activity Log

Date Flight Route Aircraft Duration
11/23/2021 CPX1803 TUKIR Q806 ILUSI ERBAL YYZ UDMIK3 B738 0h 57m
11/03/2021 CPX1803 TUKIR Q806 ILUSI ERBAL YYZ UDMIK3 B763 0h 57m

Route Details

Aircraft Information
Group: North America Fleet
Types: B738,B752,B762,B763
Route Data
Demand: V
Distance: 224nm
Duration: 0h 46m
Recm'd Route: TUKIR Q806 ILUSI ERBAL YYZ UDMIK3
Origin Wx: CYOW 270600Z 21015G22KT 15SM BKN060 BKN085 20/15 A2980 RMK SC5AC2 SLP093 DENSITY ALT 1200FT
Dest. Wx: CYHM 270600Z 23006KT 15SM -RA BKN017 OVC055 19/18 A2979 RMK SC6SC2 SLP086 DENSITY ALT 1600FT
Notes:

Financial History
Total Freight: 98,924lbs
Average Load: 49,462lbs/flt
Fuel Used: 12,832lbs
Avg. Fuel Used: 6,416lbs/flt
Fuel Expense: $4,055
Avg. Fuel Expense: $2,027
Avg. Fuel Cost: $0.33/lbs
Total Gross Income: $245,332
Pilot Pay: $408
Total Expenses: $30,226
Total Revenue: $210,815
Average Revenue: $122,665.76